Nearby METAR Reports

 

KORH - Worcester, Massachusetts, USA
Distance from station: NW 4mi, 7km
Updated: Tue, 16-Aug-2022 6:54am EDT
Clear
Clear
 Wind from N
Wind: N 7 mph , 11 km/h
Temperature: 61°F , 16°C
Dew Point: 54°F , 12°C
Humidity: 77%
Barometer: 30.07 inHg , 1018.3 hPa
Clouds: Clear
Visibility: 10 miles , 16 km
2022/08/16 10:54 KORH 161054Z 36006KT 10SM CLR 16/12 A3007 RMK AO2 SLP179 T01610117 $
KBOS - Boston, Massachusetts, USA
Distance from station: ENE 42mi, 68km
Updated: Tue, 16-Aug-2022 6:54am EDT
Few Clouds
Few Clouds
 Wind from N
Wind: N 7 mph , 11 km/h
Temperature: 66°F , 19°C
Dew Point: 57°F , 14°C
Humidity: 73%
Barometer: 30.05 inHg , 1017.6 hPa
Clouds: Few Clouds
Visibility: 10 miles , 16 km
Cloud details: Few Clouds 14000 ft
Few Clouds 25000 ft
2022/08/16 10:54 KBOS 161054Z 01006KT 10SM FEW140 FEW250 19/14 A3005 RMK AO2 SLP174 T01890144 $
 
KCQX - Chatham, Massachusetts, USA
Distance from station: SE 102mi, 164km
Updated: Tue, 16-Aug-2022 6:52am EDT
Overcast
Overcast
 Wind from NE
Wind: NE 10 mph , 17 km/h, Gust: 18 mph , 30 km/h
Temperature: 72°F , 22°C
Dew Point: 61°F , 16°C
Humidity: 69%
Barometer: 30.01 inHg , 1016.3 hPa
Clouds: Overcast
Visibility: 10 miles , 16 km
Cloud details: Overcast 11000 ft
2022/08/16 10:52 KCQX 161052Z AUTO 04009G16KT 10SM OVC110 22/16 A3001 RMK AO2 SLP165 T02170161
KMVY - Marthas Vineyard, Massachusetts, USA
Distance from station: SE 84mi, 135km
Updated: Tue, 16-Aug-2022 6:53am EDT
Clear
Clear
 Wind from NNE
Wind: NNE 8 mph , 13 km/h
Temperature: 66°F , 19°C
Dew Point: 64°F , 18°C
Humidity: 94%
Barometer: 30.00 inHg , 1015.9 hPa
Clouds: Clear
Visibility: 10 miles , 16 km
2022/08/16 10:53 KMVY 161053Z 03007KT 10SM CLR 19/18 A3000 RMK AO2 SLP157 T01940178
 
KPVC - Provincetown, Massachusetts, USA
Distance from station: NNW 85mi, 136km
Updated: Tue, 09-Aug-2022 3:56pm EDT
NOT Current
Thunderstorm, Few clouds
Thunderstorm, Few clouds
 Wind from SSW
Wind: SSW 15 mph , 24 km/h
Temperature: 81°F , 27°C
Heat Index: 86°F , 30°C
Dew Point: 73°F , 23°C
Humidity: 79%
Barometer: 29.83 inHg , 1010.2 hPa
Summary: Thunderstorm
Clouds: Few Clouds
Visibility: 10 miles , 16 km
Cloud details: Few Clouds 7500 ft
2022/08/09 19:56 KPVC 091956Z AUTO 20013KT 10SM TS FEW075 27/23 A2983 RMK AO2 LTG DSNT W-N TSB46 SLP101 T02720233
KAQW - Savoy, Massachusetts, USA
Distance from station: NNW 66mi, 106km
Updated: Tue, 16-Aug-2022 6:52am EDT
Clear
Clear
 Wind from calm
Wind: Calm
Temperature: 54°F , 12°C
Dew Point: 52°F , 11°C
Humidity: 94%
Barometer: 30.08 inHg , 1018.6 hPa
Clouds: Clear
Visibility: 10 miles , 16 km
2022/08/16 10:52 KAQW 161052Z AUTO 00000KT 10SM CLR 12/11 A3008 RMK AO2 SLP186 T01170111
 
KIZG - Fryeburg, Maine, USA
Distance from station: NNE 133mi, 214km
Updated: Tue, 16-Aug-2022 6:54am EDT
Clear
Clear
 Wind from calm
Wind: Calm
Temperature: 57°F , 14°C
Dew Point: 55°F , 13°C
Humidity: 94%
Barometer: 30.10 inHg , 1019.3 hPa
Clouds: Clear
Visibility: 10 miles , 16 km
2022/08/16 10:54 KIZG 161054Z AUTO 00000KT 10SM CLR 14/13 A3010 RMK AO2 SLP192 T01390128
KMWN - Mt Washington, New Hampshire, USA
Distance from station: NNE 146mi, 234km
Updated: Tue, 16-Aug-2022 6:56am EDT
Mostly cloudy
Mostly cloudy
 Wind from E
Wind: E 16 mph , 26 km/h
Temperature: 48°F , 9°C
Wind Chill: 42°F , 6°C
Dew Point: 46°F , 8°C
Humidity: 94%
Clouds: Mostly cloudy
Visibility: 80 miles , 128 km
Cloud details: Few Clouds 1000 ft
Partly cloudy 6000 ft
Partly cloudy 8000 ft
Mostly cloudy 20000 ft
2022/08/16 10:56 KMWN 161056Z 09014KT 80SM FEW010 SCT060 SCT080 BKN200 09/08 RMK SCSL W-NW PTCHY VLY FG W-SE
 
KBML - Berlin, New Hampshire, USA
Distance from station: NNE 160mi, 257km
Updated: Tue, 16-Aug-2022 6:52am EDT
Fog, Overcast
Fog, Overcast
 Wind from calm
Wind: Calm
Temperature: 54°F , 12°C
Dew Point: 52°F , 11°C
Humidity: 94%
Barometer: 30.14 inHg , 1020.7 hPa
Summary: Fog
Clouds: Overcast
Visibility: 1/4 mile , 0.4 km
Cloud details: Overcast 200 ft
2022/08/16 10:52 KBML 161052Z AUTO 00000KT 1/4SM FG VV002 12/11 A3014 RMK AO2 SLP207 T01170111